Stations météo

réclame
Mon MeteoGroup
Puerto Leitariegos, Espagne (8052): Température de l'air & dewpoint: 16.07.2018 18:00:00 - 22.07.2018 18:00:00 (CEST)Puerto Leitariegos, Espagne (8052): Vitesse du vent & gusts: 16.07.2018 18:00:00 - 22.07.2018 18:00:00 (CEST)Puerto Leitariegos, Espagne (8052): Direction du vent: 16.07.2018 18:00:00 - 22.07.2018 18:00:00 (CEST)Puerto Leitariegos, Espagne (8052): visibility: 16.07.2018 18:00:00 - 22.07.2018 18:00:00 (CEST)Puerto Leitariegos, Espagne (8052): Ensoleillement: 16.07.2018 18:00:00 - 22.07.2018 18:00:00 (CEST)Puerto Leitariegos, Espagne (8052): Quantités de précipitations: 16.07.2018 18:00:00 - 22.07.2018 18:00:00 (CEST)
Date & Time tt [°C] td [°C] ff [km/h] ff [knt] fx [km/h] fx [knt] dd vv [km] sd [min] rr [mm]
22.07.2018 18:00:00 15,9 13,6 17 9 24 13 NW 20 30 0,0
22.07.2018 17:00:00 16,2 13,5 15 8 24 13 NW 20 13 0,0
22.07.2018 16:00:00 15,4 13,3 14 8 23 12 NW 20 6 0,0
22.07.2018 15:00:00 15,3 13,0 17 9 24 13 NW 20 35 0,0
22.07.2018 14:00:00 - - - - - - - - - -
22.07.2018 13:00:00 15,0 12,9 14 7 20 11 NW 20 41 0,0
22.07.2018 12:00:00 13,5 11,6 13 7 17 9 NW 20 47 0,0
22.07.2018 11:00:00 - - - - - - - - - -
22.07.2018 10:00:00 11,7 10,1 5 3 13 7 ESE 20 37 0,0
22.07.2018 09:00:00 10,3 9,4 10 5 14 7 SE 20 9 0,0
22.07.2018 08:00:00 9,2 8,4 6 3 7 4 SE 20 0 -
22.07.2018 07:00:00 8,4 7,5 6 3 9 5 ESE 20 0 0,0
22.07.2018 06:00:00 8,1 7,2 4 2 7 4 WNW 20 0 0,0
22.07.2018 05:00:00 - - - - - - - - - -
22.07.2018 04:00:00 9,5 7,9 4 2 11 6 WSW 20 0 0,0
22.07.2018 03:00:00 - - - - - - - - - -
22.07.2018 02:00:00 9,8 8,9 11 6 23 12 WNW 20 0 -
22.07.2018 01:00:00 - - - - - - - - - -
22.07.2018 00:00:00 10,0 9,2 13 7 21 12 NW 2,0 0 0,4
21.07.2018 23:00:00 - - - - - - - - - -
21.07.2018 22:00:00 - - - - - - - - - -
21.07.2018 21:00:00 11,2 10,1 9 5 17 9 NW 19 0 0,0
21.07.2018 20:00:00 11,6 10,5 9 5 15 8 NW 17 0 -
21.07.2018 19:00:00 11,9 10,5 8 5 17 9 NNW 15 0 0,0
21.07.2018 18:00:00 - - - - - - - - - -
21.07.2018 17:00:00 12,1 9,7 11 6 17 9 NNW 20 0 0,0
21.07.2018 16:00:00 12,8 9,3 14 8 22 12 NW 20 7 0,0
21.07.2018 15:00:00 13,1 9,5 9 5 24 13 NNW 20 0 0,0
21.07.2018 14:00:00 - - - - - - - - - -
21.07.2018 13:00:00 11,8 7,5 13 7 20 11 NW 20 0 0,0
21.07.2018 12:00:00 12,2 7,1 12 6 16 9 NW 20 3 0,0
21.07.2018 11:00:00 - - - - - - - - - -
21.07.2018 10:00:00 10,1 5,3 6 4 10 6 NNW 20 0 0,0
21.07.2018 09:00:00 - - - - - - - - - -
21.07.2018 08:00:00 5,8 1,9 10 5 17 9 NNW 20 0 -
21.07.2018 07:00:00 - - - - - - - - - -
21.07.2018 06:00:00 3,3 1,0 4 2 8 4 NW 20 0 0,0
21.07.2018 05:00:00 - - - - - - - - - -
21.07.2018 04:00:00 5,6 4,7 3 1 8 4 NNW 19 0 0,0
21.07.2018 03:00:00 7,5 6,6 5 3 15 8 W 20 0 0,0
21.07.2018 02:00:00 7,6 6,9 5 3 11 6 N 20 0 -
21.07.2018 01:00:00 8,0 7,1 4 2 9 5 SW 20 0 0,0
21.07.2018 00:00:00 - - - - - - - - - -
20.07.2018 23:00:00 8,5 7,9 12 7 20 11 NNW 1,2 0 0,0
20.07.2018 22:00:00 8,7 8,1 13 7 24 13 NNW 6 0 0,0
20.07.2018 21:00:00 8,9 8,3 14 8 24 13 WNW 0,1 0 0,0
20.07.2018 20:00:00 9,6 8,8 14 8 29 15 NW 0,4 0 -
20.07.2018 19:00:00 10,1 9,3 11 6 26 14 WNW 0,9 0 0,0
20.07.2018 18:00:00 - - - - - - - - - -
20.07.2018 17:00:00 10,5 9,9 16 8 28 15 WNW - 0 0,0
20.07.2018 16:00:00 - - - - - - - - - -
20.07.2018 15:00:00 10,4 9,8 13 7 24 13 WNW 0,9 0 0,0
20.07.2018 14:00:00 10,3 9,7 16 9 26 14 WNW 1,1 0 -
20.07.2018 13:00:00 - - - - - - - - - -
20.07.2018 12:00:00 9,8 9,2 14 8 25 13 WNW 0,4 0 0,0
20.07.2018 11:00:00 10,0 9,4 13 7 22 12 WNW - 0 0,2
20.07.2018 10:00:00 - - - - - - - - - -
20.07.2018 09:00:00 - - - - - - - - - -
20.07.2018 08:00:00 9,7 9,1 14 8 20 11 WNW 0,3 0 -
20.07.2018 07:00:00 - - - - - - - - - -
20.07.2018 06:00:00 9,9 9,3 11 6 15 8 NW 0,5 0 0,0
20.07.2018 05:00:00 - - - - - - - - - -
20.07.2018 04:00:00 9,8 9,2 12 6 16 9 NW 0,1 0 0,0
20.07.2018 03:00:00 - - - - - - - - - -
20.07.2018 02:00:00 9,9 9,3 9 5 16 8 WNW 1,1 0 -
20.07.2018 01:00:00 10,1 9,5 9 5 17 9 WNW 0,3 0 0,2
20.07.2018 00:00:00 10,2 9,6 11 6 22 12 NW 0,2 0 0,2
19.07.2018 23:00:00 10,6 10,0 12 6 19 11 WNW 1,3 0 0,0
19.07.2018 22:00:00 - - - - - - - - - -
19.07.2018 21:00:00 11,1 10,5 14 8 25 14 WNW 0,1 0 0,2
19.07.2018 20:00:00 11,9 11,3 13 7 19 10 NW 0,1 0 -
19.07.2018 19:00:00 12,0 11,4 11 6 26 14 WNW 0,2 0 0,2
19.07.2018 18:00:00 11,7 11,1 16 9 29 16 WNW 0,2 0 0,0
19.07.2018 17:00:00 12,0 11,2 19 11 32 17 WNW 0,8 0 0,2
19.07.2018 16:00:00 13,1 12,3 19 11 27 15 NW 0,1 0 0,0
19.07.2018 15:00:00 - - - - - - - - - -
19.07.2018 14:00:00 13,2 12,4 15 8 24 13 NW 0,9 8 -
19.07.2018 13:00:00 14,1 13,2 15 8 22 12 NW 0,1 14 0,0
19.07.2018 12:00:00 - - - - - - - - - -
19.07.2018 11:00:00 13,9 13,1 15 8 21 11 NW 0,2 12 0,0
19.07.2018 10:00:00 14,8 14,0 3 2 13 7 E - 27 0,0
19.07.2018 09:00:00 - - - - - - - - - -
19.07.2018 08:00:00 12,9 12,1 8 5 13 7 SSE - 0 -
19.07.2018 07:00:00 12,8 11,7 6 3 12 6 SSE 9 0 0,0
19.07.2018 06:00:00 12,8 11,7 4 2 9 5 SSE 13 0 0,0
19.07.2018 05:00:00 12,7 11,8 6 4 9 5 SE 9 0 0,0
19.07.2018 04:00:00 13,3 12,5 6 4 11 6 SSE - 0 0,0
19.07.2018 03:00:00 13,6 12,8 2 1 8 4 SE 13 0 0,2
19.07.2018 02:00:00 13,4 12,8 2 1 9 5 SE 5 0 -
19.07.2018 01:00:00 13,7 13,1 7 4 13 7 NW 0,6 0 0,0
19.07.2018 00:00:00 13,9 13,1 10 6 14 8 NW 0,5 0 0,0
18.07.2018 23:00:00 14,0 13,2 7 4 16 8 WNW 0,1 0 0,0
18.07.2018 22:00:00 14,3 13,3 8 5 20 11 NW 0,5 0 0,8
18.07.2018 21:00:00 14,6 13,8 12 6 27 15 NW 0,5 0 0,0
18.07.2018 20:00:00 15,6 14,1 17 9 26 14 NNW 3,0 0 -
18.07.2018 19:00:00 - - - - - - - - - -
18.07.2018 18:00:00 - - - - - - - - - -
18.07.2018 17:00:00 16,5 14,0 14 8 25 14 NW 14 1 0,0
18.07.2018 16:00:00 17,3 14,2 15 8 26 14 NNW 14 7 0,0
18.07.2018 15:00:00 17,5 14,6 16 9 23 12 NW 17 30 0,0
18.07.2018 14:00:00 - - - - - - - - - -
18.07.2018 13:00:00 17,3 14,4 14 7 20 11 NNW 20 59 0,0
18.07.2018 12:00:00 19,1 12,1 8 4 15 8 SSE 20 51 0,0
18.07.2018 11:00:00 - - - - - - - - - -
18.07.2018 10:00:00 14,9 11,1 10 6 18 10 SSE 20 31 0,0
18.07.2018 09:00:00 14,8 10,8 6 3 12 7 SE 20 34 0,0
18.07.2018 08:00:00 - - - - - - - - - -
18.07.2018 07:00:00 12,0 9,9 8 4 14 7 SSE 20 0 0,0
18.07.2018 06:00:00 - - - - - - - - - -
18.07.2018 05:00:00 12,5 10,4 9 5 13 7 SSE 20 0 0,0
18.07.2018 04:00:00 - - - - - - - - - -
18.07.2018 03:00:00 10,7 9,9 6 3 10 6 SE 17 0 0,0
18.07.2018 02:00:00 - - - - - - - - - -
18.07.2018 01:00:00 10,1 8,7 1 1 10 6 NNE 20 0 0,0
18.07.2018 00:00:00 - - - - - - - - - -
17.07.2018 23:00:00 11,0 10,2 6 3 16 9 WNW 20 0 0,0
17.07.2018 22:00:00 12,1 11,5 12 7 17 9 NNW 0,1 0 0,0
17.07.2018 21:00:00 - - - - - - - - - -
17.07.2018 20:00:00 12,9 12,1 15 8 24 13 NNW 0,7 0 -
17.07.2018 19:00:00 14,1 13,2 19 10 25 13 NW 0,9 7 0,0
17.07.2018 18:00:00 - - - - - - - - - -
17.07.2018 17:00:00 15,3 13,5 17 9 25 14 NW 0,1 12 0,0
17.07.2018 16:00:00 15,1 13,3 16 9 28 15 NNW 0,2 24 0,0
17.07.2018 15:00:00 16,1 13,8 18 10 27 15 NNW 9 43 0,0
17.07.2018 14:00:00 16,5 14,2 13 7 19 11 NNW 15 51 -
17.07.2018 13:00:00 - - - - - - - - - -
17.07.2018 12:00:00 18,2 11,5 11 6 23 12 ESE 20 51 0,0
17.07.2018 11:00:00 15,0 11,0 10 5 23 12 SE 20 59 0,0
17.07.2018 10:00:00 - - - - - - - - - -
17.07.2018 09:00:00 12,8 11,0 8 5 12 7 SE 10 42 0,0
17.07.2018 08:00:00 10,0 9,1 6 3 12 6 SE 3,0 0 -
17.07.2018 07:00:00 10,2 9,1 6 4 9 5 SSE 4,5 0 0,0
17.07.2018 06:00:00 - - - - - - - - - -
17.07.2018 05:00:00 9,8 8,7 5 3 9 5 SE 4,1 0 0,0
17.07.2018 04:00:00 - - - - - - - - - -
17.07.2018 03:00:00 9,7 8,5 6 4 10 5 SSE 8 0 0,0
17.07.2018 02:00:00 - - - - - - - - - -
17.07.2018 01:00:00 10,6 9,4 7 4 16 9 WNW 8 0 0,0
17.07.2018 00:00:00 11,0 9,8 11 6 19 10 NW 7 0 0,0
16.07.2018 23:00:00 11,8 10,5 14 8 21 11 NW 10 0 0,0
16.07.2018 22:00:00 12,4 11,0 11 6 21 12 NW 8 0 0,0
16.07.2018 21:00:00 13,1 11,0 15 8 27 15 NW 16 2 0,0
16.07.2018 20:00:00 13,8 9,8 17 9 29 16 NW 20 36 -
16.07.2018 19:00:00 15,9 10,0 15 8 27 14 NW 20 59 0,0
16.07.2018 18:00:00 16,5 10,4 12 7 26 14 NW 20 60 0,0

tt = Température de l'air
td = dewpoint
ff = Vitesse du vent
fx = gusts
dd = Direction du vent
vv = visibility
sd = Ensoleillement
rr = Quantités de précipitations

stations d'obs. à proximité